createdAt,value
2019-02-14T00:01:39.187Z,3.66
2019-02-14T00:04:05.226Z,3.71
2019-02-14T00:06:31.245Z,3.71
2019-02-14T00:08:57.367Z,3.62
2019-02-14T00:11:23.434Z,3.57
2019-02-14T00:13:49.415Z,3.57
2019-02-14T00:16:15.358Z,3.57
2019-02-14T00:18:41.583Z,3.53
2019-02-14T00:21:07.555Z,3.58
2019-02-14T00:23:33.429Z,3.56
2019-02-14T00:25:59.379Z,3.54
2019-02-14T00:28:25.491Z,3.55
2019-02-14T00:30:51.571Z,3.44
2019-02-14T00:33:17.663Z,3.54
2019-02-14T00:35:43.536Z,3.63
2019-02-14T00:38:09.465Z,3.61
2019-02-14T00:40:35.415Z,3.69
2019-02-14T00:43:01.387Z,3.61
2019-02-14T00:45:27.435Z,3.50
2019-02-14T00:47:53.717Z,3.44
2019-02-14T00:50:19.704Z,3.41
2019-02-14T00:52:45.851Z,3.41
2019-02-14T00:55:11.779Z,3.43
2019-02-14T00:57:37.897Z,3.38
2019-02-14T01:00:06.092Z,3.41
2019-02-14T01:02:32.227Z,3.37
2019-02-14T01:04:58.258Z,3.37
2019-02-14T01:07:24.223Z,3.30
2019-02-14T01:09:50.200Z,3.30
2019-02-14T01:12:16.401Z,3.25
2019-02-14T01:14:42.469Z,3.23
2019-02-14T01:17:08.616Z,3.23
2019-02-14T01:19:34.692Z,3.33
2019-02-14T01:22:00.676Z,3.23
2019-02-14T01:24:26.808Z,3.23
2019-02-14T01:26:52.778Z,3.31
2019-02-14T01:29:18.787Z,3.31
2019-02-14T01:31:45.185Z,3.29
2019-02-14T01:34:11.227Z,3.28
2019-02-14T01:36:37.102Z,3.29
2019-02-14T01:39:04.669Z,3.29
2019-02-14T01:41:30.583Z,3.16
2019-02-14T01:43:56.554Z,3.16
2019-02-14T01:46:22.524Z,3.18
2019-02-14T01:48:48.586Z,3.08
2019-02-14T01:51:14.461Z,3.17
2019-02-14T01:53:40.464Z,3.20
2019-02-14T01:56:06.437Z,3.16
2019-02-14T01:58:32.586Z,3.04
2019-02-14T02:00:58.603Z,3.08
2019-02-14T02:03:24.526Z,3.08
2019-02-14T02:05:54.588Z,2.97
2019-02-14T02:08:20.685Z,3.09
2019-02-14T02:10:46.841Z,2.99
2019-02-14T02:13:12.774Z,2.89
2019-02-14T02:15:38.817Z,2.89
2019-02-14T02:18:04.897Z,2.99
2019-02-14T02:20:33.392Z,3.06
2019-02-14T02:22:58.871Z,2.94
2019-02-14T02:25:25.004Z,2.94
2019-02-14T02:27:51.032Z,3.00
2019-02-14T02:30:17.033Z,2.86
2019-02-14T02:32:43.057Z,2.86
2019-02-14T02:35:09.184Z,2.87
2019-02-14T02:37:35.161Z,2.80
2019-02-14T02:40:01.298Z,2.77
2019-02-14T02:42:27.401Z,2.89
2019-02-14T02:44:53.392Z,2.86
2019-02-14T02:47:19.415Z,2.88
2019-02-14T02:49:45.452Z,2.87
2019-02-14T02:52:11.490Z,2.74
2019-02-14T02:54:37.520Z,2.89
2019-02-14T02:57:03.654Z,2.87
2019-02-14T02:59:29.691Z,2.87
2019-02-14T03:01:55.625Z,2.84
2019-02-14T03:04:21.545Z,2.86
2019-02-14T03:06:47.666Z,2.82
2019-02-14T03:09:13.708Z,2.82
2019-02-14T03:11:39.734Z,2.82
2019-02-14T03:14:07.728Z,2.67
2019-02-14T03:16:33.611Z,2.67
2019-02-14T03:18:59.556Z,2.68
2019-02-14T03:21:25.659Z,2.59
2019-02-14T03:23:51.637Z,2.55
2019-02-14T03:26:17.839Z,2.45
2019-02-14T03:28:43.925Z,2.50
2019-02-14T03:31:10.059Z,2.53
2019-02-14T03:33:36.057Z,2.52
2019-02-14T03:36:02.042Z,2.49
2019-02-14T03:38:28.365Z,2.54
2019-02-14T03:40:54.575Z,2.49
2019-02-14T03:43:20.632Z,2.41
2019-02-14T03:45:46.737Z,2.48
2019-02-14T03:48:12.893Z,2.46
2019-02-14T03:50:38.932Z,2.55
2019-02-14T03:53:05.029Z,2.51
2019-02-14T03:55:31.111Z,2.48
2019-02-14T03:57:57.082Z,2.52
2019-02-14T04:00:23.121Z,2.64
2019-02-14T04:02:49.247Z,2.52
2019-02-14T04:05:15.389Z,2.48
2019-02-14T04:07:41.350Z,2.56
2019-02-14T04:10:12.290Z,2.57
2019-02-14T04:12:38.480Z,2.65
2019-02-14T04:15:08.190Z,2.65
2019-02-14T04:17:34.247Z,2.60
2019-02-14T04:20:00.318Z,2.49
2019-02-14T04:22:26.397Z,2.51
2019-02-14T04:24:52.379Z,2.49
2019-02-14T04:27:18.339Z,2.49
2019-02-14T04:29:44.381Z,2.48
2019-02-14T04:32:10.295Z,2.52
2019-02-14T04:34:36.368Z,2.52
2019-02-14T04:37:02.413Z,2.48
2019-02-14T04:39:28.508Z,2.39
2019-02-14T04:41:54.533Z,2.30
2019-02-14T04:44:20.480Z,2.45
2019-02-14T04:46:46.432Z,2.44
2019-02-14T04:49:12.479Z,2.37
2019-02-14T04:51:38.504Z,2.33
2019-02-14T04:54:04.455Z,2.33
2019-02-14T04:56:30.527Z,2.22
2019-02-14T04:58:56.583Z,2.34
2019-02-14T05:01:22.534Z,2.32
2019-02-14T05:03:48.449Z,2.28
2019-02-14T05:06:14.470Z,2.26
2019-02-14T05:08:40.446Z,2.18
2019-02-14T05:11:06.337Z,2.23
2019-02-14T05:13:32.294Z,2.20
2019-02-14T05:15:58.231Z,2.17
2019-02-14T05:18:24.279Z,2.13
2019-02-14T05:20:50.189Z,2.09
2019-02-14T05:23:16.159Z,2.13
2019-02-14T05:25:42.146Z,2.16
2019-02-14T05:28:08.059Z,2.21
2019-02-14T05:30:34.126Z,2.15
2019-02-14T05:33:00.272Z,2.25
2019-02-14T05:35:26.383Z,2.17
2019-02-14T05:37:52.419Z,2.09
2019-02-14T05:40:18.440Z,2.07
2019-02-14T05:42:44.573Z,2.08
2019-02-14T05:45:12.008Z,2.09
2019-02-14T05:47:37.890Z,2.14
2019-02-14T05:50:06.749Z,2.20
2019-02-14T05:52:32.689Z,2.01
2019-02-14T05:55:00.627Z,2.15
2019-02-14T05:57:27.408Z,2.28
2019-02-14T05:59:53.554Z,2.23
2019-02-14T06:02:19.584Z,2.26
2019-02-14T06:04:45.499Z,2.23
2019-02-14T06:07:11.463Z,2.19
2019-02-14T06:09:41.328Z,2.00
2019-02-14T06:12:07.247Z,2.06
2019-02-14T06:14:33.224Z,2.14
2019-02-14T06:16:59.139Z,1.96
2019-02-14T06:19:25.148Z,1.99
2019-02-14T06:21:51.189Z,2.08
2019-02-14T06:24:17.207Z,1.98
2019-02-14T06:26:43.298Z,2.09
2019-02-14T06:29:09.219Z,2.05
2019-02-14T06:31:35.213Z,1.96
2019-02-14T06:34:01.199Z,1.87
2019-02-14T06:36:27.220Z,1.93
2019-02-14T06:38:53.371Z,1.89
2019-02-14T06:41:19.358Z,1.98
2019-02-14T06:43:45.239Z,2.08
2019-02-14T06:46:11.260Z,2.16
2019-02-14T06:48:37.205Z,2.11
2019-02-14T06:51:03.280Z,2.14
2019-02-14T06:53:29.401Z,2.19
2019-02-14T06:55:55.274Z,2.24
2019-02-14T06:58:21.632Z,2.19
2019-02-14T07:00:47.708Z,2.25
2019-02-14T07:03:13.655Z,2.40
2019-02-14T07:05:39.752Z,2.44
2019-02-14T07:08:05.698Z,2.46
2019-02-14T07:10:31.921Z,2.52
2019-02-14T07:12:57.903Z,2.58
2019-02-14T07:15:23.908Z,2.71
2019-02-14T07:17:49.870Z,2.70
2019-02-14T07:20:16.254Z,2.78
2019-02-14T07:22:42.260Z,2.85
2019-02-14T07:25:09.929Z,3.04
2019-02-14T07:27:35.871Z,3.01
2019-02-14T07:30:07.559Z,3.01
2019-02-14T07:32:33.502Z,3.11
2019-02-14T07:34:59.480Z,3.11
2019-02-14T07:37:27.065Z,3.23
2019-02-14T07:39:53.205Z,3.47
2019-02-14T07:42:19.206Z,3.47
2019-02-14T07:44:45.309Z,3.55
2019-02-14T07:47:11.268Z,3.70
2019-02-14T07:49:37.156Z,3.80
2019-02-14T07:52:03.287Z,3.97
2019-02-14T07:54:29.164Z,4.05
2019-02-14T07:56:55.150Z,4.05
2019-02-14T07:59:21.100Z,4.12
2019-02-14T08:01:47.270Z,4.18
2019-02-14T08:04:13.215Z,4.37
2019-02-14T08:06:39.154Z,4.57
2019-02-14T08:09:05.515Z,4.57
2019-02-14T08:11:31.663Z,4.73
2019-02-14T08:13:57.577Z,4.95
2019-02-14T08:16:23.595Z,5.26
2019-02-14T08:18:49.631Z,5.17
2019-02-14T08:21:15.702Z,5.05
2019-02-14T08:23:42.149Z,4.93
2019-02-14T08:26:10.766Z,5.30
2019-02-14T08:28:36.227Z,5.23
2019-02-14T08:31:02.328Z,5.24
2019-02-14T08:33:28.282Z,5.24
2019-02-14T08:35:54.324Z,5.46
2019-02-14T08:38:20.187Z,5.40
2019-02-14T08:40:46.194Z,5.55
2019-02-14T08:43:12.029Z,5.89
2019-02-14T08:45:37.950Z,5.97
2019-02-14T08:48:04.291Z,5.93
2019-02-14T08:50:30.307Z,5.87
2019-02-14T08:52:56.301Z,5.94
2019-02-14T08:55:22.424Z,5.96
2019-02-14T08:57:48.387Z,6.09
2019-02-14T09:00:15.556Z,6.17
2019-02-14T09:02:41.500Z,6.27
2019-02-14T09:05:07.958Z,6.45
2019-02-14T09:07:34.190Z,6.48
2019-02-14T09:10:02.327Z,6.53
2019-02-14T09:12:28.261Z,6.69
2019-02-14T09:14:54.265Z,6.84
2019-02-14T09:17:20.301Z,6.91
2019-02-14T09:19:46.343Z,7.01
2019-02-14T09:22:12.387Z,7.04
2019-02-14T09:24:38.341Z,7.31
2019-02-14T09:27:04.224Z,7.57
2019-02-14T09:29:32.255Z,7.59
2019-02-14T09:31:58.331Z,7.64
2019-02-14T09:34:27.291Z,7.78
2019-02-14T09:36:53.252Z,8.01
2019-02-14T09:39:19.118Z,8.09
2019-02-14T09:41:45.069Z,8.17
2019-02-14T09:44:11.043Z,8.27
2019-02-14T09:46:36.972Z,8.34
2019-02-14T09:49:05.914Z,8.34
2019-02-14T09:51:31.996Z,8.31
2019-02-14T09:53:58.034Z,8.53
2019-02-14T09:56:24.147Z,8.54
2019-02-14T09:58:50.302Z,8.46
2019-02-14T10:01:16.302Z,8.46
2019-02-14T10:03:42.369Z,8.52
2019-02-14T10:06:08.518Z,8.46
2019-02-14T10:08:34.515Z,8.44
2019-02-14T10:11:00.524Z,8.60
2019-02-14T10:13:30.193Z,8.73
2019-02-14T10:15:56.096Z,8.77
2019-02-14T10:18:22.149Z,8.92
2019-02-14T10:20:48.248Z,8.87
2019-02-14T10:23:14.334Z,8.99
2019-02-14T10:25:40.327Z,9.02
2019-02-14T10:28:06.272Z,9.08
2019-02-14T10:30:32.283Z,9.11
2019-02-14T10:32:58.306Z,9.41
2019-02-14T10:35:24.159Z,9.63
2019-02-14T10:37:50.109Z,9.75
2019-02-14T10:40:16.389Z,9.96
2019-02-14T10:42:42.357Z,10.37
2019-02-14T10:45:13.591Z,10.53
2019-02-14T10:47:39.670Z,10.66
2019-02-14T10:50:07.930Z,10.82
2019-02-14T10:52:34.143Z,10.97
2019-02-14T10:55:00.056Z,10.88
2019-02-14T10:57:26.087Z,11.02
2019-02-14T10:59:52.238Z,11.23
2019-02-14T11:02:20.738Z,10.97
2019-02-14T11:04:51.646Z,10.72
2019-02-14T11:07:21.104Z,10.70
2019-02-14T11:09:49.140Z,10.51
2019-02-14T11:12:15.135Z,10.36
2019-02-14T11:14:41.482Z,10.51
2019-02-14T11:17:07.603Z,10.69
2019-02-14T11:19:33.521Z,10.69
2019-02-14T11:21:59.445Z,10.78
2019-02-14T11:24:25.444Z,10.61
2019-02-14T11:26:51.490Z,10.68
2019-02-14T11:29:17.510Z,10.76
2019-02-14T11:31:43.498Z,10.88
2019-02-14T11:34:09.483Z,10.96
2019-02-14T11:36:35.432Z,11.03
2019-02-14T11:39:01.401Z,11.05
2019-02-14T11:41:27.371Z,11.24
2019-02-14T11:43:53.405Z,10.97
2019-02-14T11:46:19.521Z,11.14
2019-02-14T11:48:45.512Z,11.13
2019-02-14T11:51:11.489Z,11.20
2019-02-14T11:53:37.521Z,11.37
2019-02-14T11:56:03.517Z,11.35
2019-02-14T11:58:29.569Z,11.30
2019-02-14T12:00:55.744Z,11.22
2019-02-14T12:03:21.714Z,11.27
2019-02-14T12:05:48.119Z,11.18
2019-02-14T12:08:14.129Z,11.33
2019-02-14T12:10:40.015Z,11.27
2019-02-14T12:13:06.030Z,11.25
2019-02-14T12:15:36.107Z,11.28
2019-02-14T12:18:02.208Z,11.79
2019-02-14T12:20:28.480Z,12.43
2019-02-14T12:22:54.570Z,12.90
2019-02-14T12:25:28.543Z,12.95
2019-02-14T12:27:54.597Z,13.72
2019-02-14T12:30:20.570Z,16.12
2019-02-14T12:32:46.490Z,18.35
2019-02-14T12:35:12.648Z,18.93
2019-02-14T12:37:38.680Z,18.65
2019-02-14T12:40:07.730Z,17.24
2019-02-14T12:42:33.641Z,18.72
2019-02-14T12:44:59.516Z,20.99
2019-02-14T12:47:25.619Z,20.07
2019-02-14T12:49:51.516Z,20.80
2019-02-14T12:52:17.611Z,17.84
2019-02-14T12:54:43.547Z,18.67
2019-02-14T12:57:09.596Z,17.22
2019-02-14T12:59:35.571Z,18.90
2019-02-14T13:02:01.658Z,24.08
2019-02-14T13:04:27.608Z,26.04
2019-02-14T13:06:53.682Z,24.86
2019-02-14T13:09:20.448Z,24.24
2019-02-14T13:11:46.427Z,27.32
2019-02-14T13:14:12.361Z,28.65
2019-02-14T13:16:42.592Z,25.76
2019-02-14T13:19:10.044Z,28.09
2019-02-14T13:21:36.038Z,26.60
2019-02-14T13:24:01.940Z,27.60
2019-02-14T13:26:27.949Z,28.66
2019-02-14T13:28:54.016Z,30.17
2019-02-14T13:31:20.027Z,28.08
2019-02-14T13:33:46.026Z,28.79
2019-02-14T13:36:12.010Z,30.97
2019-02-14T13:38:38.027Z,30.59
2019-02-14T13:41:04.088Z,29.56
2019-02-14T13:43:29.948Z,27.87
2019-02-14T13:45:55.815Z,32.74
2019-02-14T13:48:21.790Z,33.83
2019-02-14T13:50:47.843Z,32.39
2019-02-14T13:53:13.841Z,33.76
2019-02-14T13:55:40.020Z,32.47
2019-02-14T13:58:05.883Z,32.78
2019-02-14T14:00:31.901Z,32.87
2019-02-14T14:02:57.903Z,34.32
2019-02-14T14:05:23.786Z,33.51
2019-02-14T14:07:49.905Z,36.00
2019-02-14T14:10:16.027Z,35.16
2019-02-14T14:12:42.535Z,35.04
2019-02-14T14:15:08.775Z,35.97
2019-02-14T14:17:35.437Z,26.54
2019-02-14T14:20:01.631Z,26.51
2019-02-14T14:22:27.516Z,25.11
2019-02-14T14:24:53.425Z,27.86
2019-02-14T14:27:19.466Z,25.57
2019-02-14T14:29:45.345Z,24.31
2019-02-14T14:32:11.309Z,26.33
2019-02-14T14:34:37.230Z,26.65
2019-02-14T14:37:03.131Z,29.28
2019-02-14T14:39:29.010Z,24.42
2019-02-14T14:41:55.065Z,24.09
2019-02-14T14:44:26.065Z,22.39
2019-02-14T14:46:51.998Z,24.01
2019-02-14T14:49:18.115Z,27.48
2019-02-14T14:51:43.942Z,28.64
2019-02-14T14:54:09.931Z,29.89
2019-02-14T14:56:36.080Z,26.70
2019-02-14T14:59:02.188Z,28.86
2019-02-14T15:01:28.078Z,31.82
2019-02-14T15:03:53.986Z,33.32
2019-02-14T15:06:20.017Z,31.73
2019-02-14T15:08:46.056Z,27.59
2019-02-14T15:11:11.951Z,31.24
2019-02-14T15:13:37.956Z,31.45
2019-02-14T15:16:05.913Z,28.13
2019-02-14T15:18:31.898Z,30.50
2019-02-14T15:20:57.817Z,30.66
2019-02-14T15:23:23.713Z,28.34
2019-02-14T15:25:49.953Z,28.30
2019-02-14T15:28:15.886Z,28.29
2019-02-14T15:30:41.959Z,27.08
2019-02-14T15:33:08.014Z,23.75
2019-02-14T15:35:34.043Z,19.97
2019-02-14T15:38:00.019Z,18.48
2019-02-14T15:40:25.942Z,17.60
2019-02-14T15:42:52.121Z,16.90
2019-02-14T15:45:18.373Z,16.73
2019-02-14T15:47:44.308Z,16.57
2019-02-14T15:50:10.333Z,16.47
2019-02-14T15:52:36.429Z,15.65
2019-02-14T15:55:02.736Z,15.53
2019-02-14T15:57:28.790Z,15.40
2019-02-14T15:59:54.695Z,15.24
2019-02-14T16:02:20.832Z,15.03
2019-02-14T16:04:46.775Z,14.73
2019-02-14T16:07:13.236Z,14.45
2019-02-14T16:09:41.250Z,14.31
2019-02-14T16:12:07.203Z,14.24
2019-02-14T16:14:33.158Z,14.08
2019-02-14T16:16:59.226Z,13.90
2019-02-14T16:19:25.117Z,13.66
2019-02-14T16:21:51.904Z,13.45
2019-02-14T16:24:19.155Z,13.22
2019-02-14T16:26:45.093Z,13.04
2019-02-14T16:29:11.170Z,12.83
2019-02-14T16:31:37.293Z,12.78
2019-02-14T16:34:03.170Z,12.52
2019-02-14T16:36:29.304Z,12.37
2019-02-14T16:38:56.472Z,12.23
2019-02-14T16:41:23.052Z,12.06
2019-02-14T16:43:48.949Z,11.90
2019-02-14T16:46:14.930Z,11.82
2019-02-14T16:48:41.007Z,11.67
2019-02-14T16:51:06.928Z,11.57
2019-02-14T16:53:32.832Z,11.37
2019-02-14T16:56:02.120Z,11.37
2019-02-14T16:58:26.827Z,11.20
2019-02-14T17:00:52.836Z,11.06
2019-02-14T17:03:19.269Z,11.02
2019-02-14T17:05:45.299Z,10.86
2019-02-14T17:08:11.257Z,10.72
2019-02-14T17:10:37.426Z,10.80
2019-02-14T17:13:03.391Z,10.84
2019-02-14T17:15:29.255Z,10.55
2019-02-14T17:17:55.194Z,10.58
2019-02-14T17:20:24.876Z,10.68
2019-02-14T17:22:50.810Z,10.49
2019-02-14T17:25:17.371Z,10.46
2019-02-14T17:27:43.422Z,10.23
2019-02-14T17:30:09.535Z,10.12
2019-02-14T17:32:35.552Z,10.09
2019-02-14T17:35:01.867Z,9.96
2019-02-14T17:37:27.955Z,9.87
2019-02-14T17:39:53.823Z,9.93
2019-02-14T17:42:19.701Z,9.67
2019-02-14T17:44:45.684Z,9.58
2019-02-14T17:47:11.706Z,9.68
2019-02-14T17:49:37.738Z,9.64
2019-02-14T17:52:03.614Z,9.65
2019-02-14T17:54:29.600Z,9.52
2019-02-14T17:56:55.633Z,9.25
2019-02-14T17:59:21.712Z,9.08
2019-02-14T18:01:47.579Z,8.83
2019-02-14T18:04:13.483Z,8.67
2019-02-14T18:06:39.462Z,8.93
2019-02-14T18:09:05.520Z,8.95
2019-02-14T18:11:31.471Z,8.89
2019-02-14T18:13:57.438Z,8.66
2019-02-14T18:16:23.393Z,8.52
2019-02-14T18:18:49.258Z,8.58
2019-02-14T18:21:15.296Z,8.56
2019-02-14T18:23:41.259Z,8.45
2019-02-14T18:26:07.351Z,8.29
2019-02-14T18:28:33.339Z,8.31
2019-02-14T18:30:59.308Z,8.46
2019-02-14T18:33:25.441Z,8.34
2019-02-14T18:35:51.306Z,8.22
2019-02-14T18:38:17.232Z,8.09
2019-02-14T18:40:45.136Z,8.08
2019-02-14T18:43:11.063Z,8.01
2019-02-14T18:45:37.087Z,8.11
2019-02-14T18:48:03.186Z,8.07
2019-02-14T18:50:29.163Z,7.90
2019-02-14T18:52:55.187Z,7.83
2019-02-14T18:55:21.267Z,7.70
2019-02-14T18:57:47.163Z,7.59
2019-02-14T19:00:17.398Z,7.74
2019-02-14T19:02:43.596Z,7.81
2019-02-14T19:05:10.291Z,7.78
2019-02-14T19:07:36.238Z,7.82
2019-02-14T19:10:05.417Z,7.68
2019-02-14T19:12:31.266Z,7.83
2019-02-14T19:14:57.231Z,7.89
2019-02-14T19:17:23.192Z,7.90
2019-02-14T19:19:49.090Z,7.86
2019-02-14T19:22:15.109Z,7.70
2019-02-14T19:24:40.983Z,7.69
2019-02-14T19:27:07.173Z,7.62
2019-02-14T19:29:33.211Z,7.49
2019-02-14T19:31:59.207Z,7.48
2019-02-14T19:34:25.059Z,7.38
2019-02-14T19:36:51.135Z,7.16
2019-02-14T19:39:17.030Z,7.10
2019-02-14T19:41:43.122Z,7.33
2019-02-14T19:44:09.039Z,7.37
2019-02-14T19:46:34.910Z,7.38
2019-02-14T19:49:00.924Z,7.16
2019-02-14T19:51:27.263Z,7.13
2019-02-14T19:53:53.168Z,7.05
2019-02-14T19:56:19.063Z,7.10
2019-02-14T19:58:44.968Z,7.03
2019-02-14T20:01:10.969Z,6.96
2019-02-14T20:03:36.879Z,6.96
2019-02-14T20:06:03.017Z,6.95
2019-02-14T20:08:28.884Z,7.03
2019-02-14T20:10:54.881Z,7.05
2019-02-14T20:13:21.229Z,7.08
2019-02-14T20:15:47.581Z,6.98
2019-02-14T20:18:13.886Z,7.00
2019-02-14T20:20:40.315Z,7.12
2019-02-14T20:23:10.065Z,7.11
2019-02-14T20:25:36.519Z,7.00
2019-02-14T20:28:02.998Z,6.94
2019-02-14T20:30:29.547Z,6.84
2019-02-14T20:33:04.440Z,6.84
2019-02-14T20:35:25.218Z,6.87
2019-02-14T20:37:52.185Z,6.73
2019-02-14T20:40:19.419Z,6.66
2019-02-14T20:42:46.715Z,6.67
2019-02-14T20:45:14.506Z,6.68
2019-02-14T20:47:41.720Z,6.72
2019-02-14T20:50:11.041Z,6.61
2019-02-14T20:52:37.817Z,6.55
2019-02-14T20:55:07.538Z,6.50
2019-02-14T20:57:33.891Z,6.58
2019-02-14T20:59:59.912Z,6.53
2019-02-14T21:02:25.760Z,6.52
2019-02-14T21:04:51.764Z,6.45
2019-02-14T21:07:17.767Z,6.48
2019-02-14T21:09:43.753Z,6.53
2019-02-14T21:12:09.766Z,6.50
2019-02-14T21:14:35.931Z,6.43
2019-02-14T21:17:01.796Z,6.24
2019-02-14T21:19:27.823Z,6.36
2019-02-14T21:21:53.724Z,6.41
2019-02-14T21:24:23.845Z,6.24
2019-02-14T21:26:49.908Z,6.34
2019-02-14T21:29:16.094Z,6.43
2019-02-14T21:31:42.015Z,6.24
2019-02-14T21:34:08.050Z,6.08
2019-02-14T21:36:34.757Z,5.87
2019-02-14T21:39:00.788Z,6.10
2019-02-14T21:41:26.786Z,6.15
2019-02-14T21:43:52.773Z,6.12
2019-02-14T21:46:18.697Z,5.96
2019-02-14T21:48:44.700Z,5.83
2019-02-14T21:51:10.849Z,5.82
2019-02-14T21:53:36.919Z,5.70
2019-02-14T21:56:03.044Z,5.65
2019-02-14T21:58:28.973Z,5.47
2019-02-14T22:00:54.946Z,5.37
2019-02-14T22:03:20.819Z,5.42
2019-02-14T22:05:46.844Z,5.52
2019-02-14T22:08:12.850Z,5.38
2019-02-14T22:10:38.849Z,5.45
2019-02-14T22:13:04.895Z,5.34
2019-02-14T22:15:30.891Z,5.32
2019-02-14T22:17:56.874Z,5.49
2019-02-14T22:20:22.962Z,5.51
2019-02-14T22:22:48.887Z,5.42
2019-02-14T22:25:14.963Z,5.28
2019-02-14T22:27:41.089Z,5.24
2019-02-14T22:30:10.914Z,5.32
2019-02-14T22:32:37.033Z,5.36
2019-02-14T22:35:03.261Z,5.18
2019-02-14T22:37:29.371Z,5.18
2019-02-14T22:39:55.268Z,5.13
2019-02-14T22:42:21.295Z,5.22
2019-02-14T22:44:47.274Z,5.34
2019-02-14T22:47:13.162Z,5.24
2019-02-14T22:49:39.075Z,5.21
2019-02-14T22:52:05.115Z,5.19
2019-02-14T22:54:31.297Z,5.21
2019-02-14T22:56:57.377Z,5.40
2019-02-14T22:59:23.586Z,5.34
2019-02-14T23:01:49.812Z,5.05
2019-02-14T23:04:15.906Z,5.05
2019-02-14T23:06:42.039Z,5.00
2019-02-14T23:09:08.783Z,5.11
2019-02-14T23:11:34.776Z,4.96
2019-02-14T23:14:00.839Z,5.14
2019-02-14T23:16:26.784Z,4.96
2019-02-14T23:18:52.809Z,4.99
2019-02-14T23:21:18.821Z,5.15
2019-02-14T23:23:44.725Z,4.99
2019-02-14T23:26:10.859Z,5.10
2019-02-14T23:28:36.768Z,5.14
2019-02-14T23:31:03.046Z,5.22
2019-02-14T23:33:29.040Z,5.15
2019-02-14T23:35:55.034Z,5.21
2019-02-14T23:38:21.019Z,5.04
2019-02-14T23:40:47.051Z,4.95
2019-02-14T23:43:12.929Z,5.10
2019-02-14T23:45:38.799Z,4.94
2019-02-14T23:48:04.924Z,5.15
2019-02-14T23:50:30.916Z,4.95
2019-02-14T23:52:56.885Z,4.73
2019-02-14T23:55:22.915Z,4.56
2019-02-14T23:57:48.820Z,4.88
